createdAt,value
2018-10-17T00:00:47.496Z,99127.92
2018-10-17T00:03:15.811Z,99134.72
2018-10-17T00:05:44.477Z,99135.53
2018-10-17T00:08:12.794Z,99135.69
2018-10-17T00:10:41.206Z,99132.58
2018-10-17T00:13:09.584Z,99136.31
2018-10-17T00:15:37.916Z,99136.19
2018-10-17T00:18:06.470Z,99139.69
2018-10-17T00:20:34.831Z,99138.73
2018-10-17T00:23:03.216Z,99140.44
2018-10-17T00:25:31.561Z,99141.60
2018-10-17T00:27:59.878Z,99143.34
2018-10-17T00:30:28.184Z,99144.12
2018-10-17T00:32:56.570Z,99144.52
2018-10-17T00:35:24.909Z,99137.59
2018-10-17T00:37:53.246Z,99138.36
2018-10-17T00:40:23.996Z,99134.00
2018-10-17T00:42:53.159Z,99136.67
2018-10-17T00:45:21.626Z,99142.23
2018-10-17T00:47:49.974Z,99133.56
2018-10-17T00:50:18.341Z,99136.84
2018-10-17T00:52:46.650Z,99137.39
2018-10-17T00:55:15.340Z,99131.66
2018-10-17T00:57:43.587Z,99133.06
2018-10-17T01:00:11.946Z,99135.53
2018-10-17T01:02:40.294Z,99136.77
2018-10-17T01:05:08.747Z,99123.70
2018-10-17T01:07:37.080Z,99129.64
2018-10-17T01:10:05.615Z,99124.54
2018-10-17T01:12:33.926Z,99121.45
2018-10-17T01:15:02.289Z,99117.16
2018-10-17T01:17:30.654Z,99117.39
2018-10-17T01:19:58.983Z,99119.80
2018-10-17T01:22:27.466Z,99117.19
2018-10-17T01:24:55.865Z,99122.00
2018-10-17T01:27:24.214Z,99124.34
2018-10-17T01:29:52.567Z,99128.00
2018-10-17T01:32:20.916Z,99128.56
2018-10-17T01:34:49.287Z,99128.42
2018-10-17T01:37:17.670Z,99122.58
2018-10-17T01:39:46.010Z,99124.04
2018-10-17T01:42:14.343Z,99120.23
2018-10-17T01:44:42.679Z,99115.98
2018-10-17T01:47:11.101Z,99119.59
2018-10-17T01:49:39.455Z,99115.00
2018-10-17T01:52:07.785Z,99118.14
2018-10-17T01:54:36.159Z,99112.72
2018-10-17T01:57:04.575Z,99106.77
2018-10-17T01:59:32.882Z,99106.06
2018-10-17T02:02:01.236Z,99107.27
2018-10-17T02:04:29.534Z,99099.50
2018-10-17T02:06:57.929Z,99102.53
2018-10-17T02:09:26.244Z,99102.36
2018-10-17T02:11:54.588Z,99099.88
2018-10-17T02:14:22.939Z,99097.55
2018-10-17T02:16:51.368Z,99100.55
2018-10-17T02:19:19.709Z,99095.11
2018-10-17T02:21:48.041Z,99092.61
2018-10-17T02:24:16.388Z,99090.16
2018-10-17T02:26:44.727Z,99089.94
2018-10-17T02:29:13.137Z,99088.72
2018-10-17T02:31:41.495Z,99094.63
2018-10-17T02:34:09.819Z,99087.97
2018-10-17T02:36:38.191Z,99093.52
2018-10-17T02:39:08.242Z,99094.30
2018-10-17T02:41:47.719Z,99096.02
2018-10-17T02:44:26.359Z,99095.14
2018-10-17T02:46:57.652Z,99088.28
2018-10-17T02:49:26.127Z,99091.06
2018-10-17T02:51:54.466Z,99091.05
2018-10-17T02:54:22.832Z,99086.22
2018-10-17T02:56:51.174Z,99093.58
2018-10-17T02:59:19.551Z,99095.39
2018-10-17T03:01:47.899Z,99093.57
2018-10-17T03:04:16.248Z,99092.88
2018-10-17T03:06:44.616Z,99092.83
2018-10-17T03:09:12.947Z,99099.38
2018-10-17T03:11:41.276Z,99100.34
2018-10-17T03:14:09.639Z,99095.43
2018-10-17T03:16:38.048Z,99093.13
2018-10-17T03:19:06.459Z,99093.85
2018-10-17T03:21:34.838Z,99097.30
2018-10-17T03:24:03.186Z,99098.62
2018-10-17T03:26:31.535Z,99094.89
2018-10-17T03:28:59.957Z,99098.57
2018-10-17T03:31:28.383Z,99101.70
2018-10-17T03:33:56.672Z,99100.15
2018-10-17T03:36:25.001Z,99099.91
2018-10-17T03:38:53.371Z,99103.03
2018-10-17T03:41:21.710Z,99104.95
2018-10-17T03:43:50.023Z,99099.70
2018-10-17T03:46:18.362Z,99103.23
2018-10-17T03:48:46.682Z,99102.12
2018-10-17T03:51:15.155Z,99098.94
2018-10-17T03:53:43.500Z,99099.59
2018-10-17T03:56:11.840Z,99098.94
2018-10-17T03:58:40.217Z,99096.25
2018-10-17T04:01:08.619Z,99104.00
2018-10-17T04:03:36.915Z,99103.98
2018-10-17T04:06:05.582Z,99100.45
2018-10-17T04:08:33.947Z,99107.34
2018-10-17T04:11:02.335Z,99112.57
2018-10-17T04:13:30.688Z,99106.14
2018-10-17T04:15:59.056Z,99114.20
2018-10-17T04:18:27.411Z,99117.95
2018-10-17T04:20:55.814Z,99108.41
2018-10-17T04:23:24.144Z,99106.86
2018-10-17T04:25:52.449Z,99114.38
2018-10-17T04:28:20.814Z,99115.10
2018-10-17T04:30:49.167Z,99113.09
2018-10-17T04:33:17.519Z,99108.42
2018-10-17T04:35:45.945Z,99117.34
2018-10-17T04:38:14.346Z,99110.55
2018-10-17T04:40:42.779Z,99108.77
2018-10-17T04:43:11.430Z,99099.70
2018-10-17T04:45:40.017Z,99101.52
2018-10-17T04:48:08.414Z,99101.11
2018-10-17T04:50:36.815Z,99094.05
2018-10-17T04:53:05.346Z,99100.14
2018-10-17T04:55:33.690Z,99102.69
2018-10-17T04:58:02.126Z,99093.89
2018-10-17T05:00:30.488Z,99099.58
2018-10-17T05:02:58.826Z,99094.09
2018-10-17T05:05:27.182Z,99099.38
2018-10-17T05:07:55.684Z,99097.69
2018-10-17T05:10:24.065Z,99100.78
2018-10-17T05:12:52.409Z,99100.70
2018-10-17T05:15:20.865Z,99102.51
2018-10-17T05:17:49.187Z,99098.85
2018-10-17T05:20:17.756Z,99107.92
2018-10-17T05:22:46.138Z,99111.55
2018-10-17T05:25:14.511Z,99110.27
2018-10-17T05:27:42.832Z,99110.75
2018-10-17T05:30:11.152Z,99110.75
2018-10-17T05:32:39.537Z,99115.73
2018-10-17T05:35:08.252Z,99114.28
2018-10-17T05:37:36.720Z,99115.56
2018-10-17T05:40:06.086Z,99113.00
2018-10-17T05:42:34.478Z,99118.80
2018-10-17T05:45:03.475Z,99118.47
2018-10-17T05:47:32.307Z,99122.76
2018-10-17T05:50:00.816Z,99123.13
2018-10-17T05:52:29.179Z,99125.07
2018-10-17T05:54:57.606Z,99130.89
2018-10-17T05:57:26.003Z,99126.16
2018-10-17T05:59:54.426Z,99127.25
2018-10-17T06:02:27.297Z,99125.79
2018-10-17T06:04:56.078Z,99126.52
2018-10-17T06:07:24.508Z,99124.30
2018-10-17T06:09:52.983Z,99127.19
2018-10-17T06:12:21.330Z,99128.42
2018-10-17T06:14:49.682Z,99126.36
2018-10-17T06:17:18.179Z,99126.31
2018-10-17T06:19:46.578Z,99131.91
2018-10-17T06:22:14.925Z,99130.10
2018-10-17T06:24:43.324Z,99136.87
2018-10-17T06:27:11.963Z,99134.39
2018-10-17T06:29:40.484Z,99132.31
2018-10-17T06:32:08.831Z,99128.87
2018-10-17T06:34:37.295Z,99137.16
2018-10-17T06:37:06.167Z,99136.05
2018-10-17T06:39:34.490Z,99126.36
2018-10-17T06:42:02.931Z,99128.84
2018-10-17T06:44:31.337Z,99118.47
2018-10-17T06:46:59.782Z,99118.29
2018-10-17T06:49:28.071Z,99117.48
2018-10-17T06:51:56.443Z,99118.56
2018-10-17T06:54:24.842Z,99120.42
2018-10-17T06:56:53.202Z,99117.23
2018-10-17T06:59:21.608Z,99122.70
2018-10-17T07:01:50.001Z,99116.87
2018-10-17T07:04:18.373Z,99133.41
2018-10-17T07:06:46.844Z,99123.80
2018-10-17T07:09:15.228Z,99123.14
2018-10-17T07:11:43.837Z,99125.98
2018-10-17T07:14:12.204Z,99127.68
2018-10-17T07:16:40.564Z,99126.21
2018-10-17T07:19:09.080Z,99128.17
2018-10-17T07:21:37.592Z,99128.74
2018-10-17T07:24:05.939Z,99124.21
2018-10-17T07:26:34.326Z,99120.33
2018-10-17T07:29:09.249Z,99120.94
2018-10-17T07:31:37.995Z,99118.56
2018-10-17T07:34:06.519Z,99115.95
2018-10-17T07:36:34.891Z,99119.64
2018-10-17T07:39:03.664Z,99118.93
2018-10-17T07:41:32.072Z,99115.78
2018-10-17T07:44:01.516Z,99116.60
2018-10-17T07:46:30.200Z,99120.80
2018-10-17T07:48:58.607Z,99114.67
2018-10-17T07:51:26.984Z,99115.28
2018-10-17T07:53:55.380Z,99115.92
2018-10-17T07:56:23.857Z,99119.84
2018-10-17T07:58:52.247Z,99114.59
2018-10-17T08:01:20.610Z,99115.92
2018-10-17T08:03:48.979Z,99112.73
2018-10-17T08:06:17.510Z,99119.23
2018-10-17T08:08:45.959Z,99115.14
2018-10-17T08:11:14.315Z,99115.69
2018-10-17T08:13:42.703Z,99108.03
2018-10-17T08:16:11.307Z,99112.52
2018-10-17T08:18:39.724Z,99111.61
2018-10-17T08:21:08.206Z,99111.31
2018-10-17T08:23:36.556Z,99111.81
2018-10-17T08:26:04.899Z,99104.95
2018-10-17T08:28:33.254Z,99103.12
2018-10-17T08:31:01.603Z,99104.68
2018-10-17T08:33:29.966Z,99108.75
2018-10-17T08:35:58.623Z,99108.05
2018-10-17T08:38:26.920Z,99109.09
2018-10-17T08:40:55.361Z,99111.77
2018-10-17T08:43:23.718Z,99106.64
2018-10-17T08:45:52.080Z,99115.06
2018-10-17T08:48:20.435Z,99107.02
2018-10-17T08:50:48.933Z,99108.70
2018-10-17T08:53:29.547Z,99112.80
2018-10-17T08:55:57.905Z,99112.69
2018-10-17T08:58:26.255Z,99115.53
2018-10-17T09:00:54.644Z,99114.84
2018-10-17T09:03:23.018Z,99123.92
2018-10-17T09:05:51.385Z,99121.20
2018-10-17T09:08:19.824Z,99121.39
2018-10-17T09:10:48.178Z,99118.67
2018-10-17T09:13:16.560Z,99114.91
2018-10-17T09:15:44.904Z,99120.72
2018-10-17T09:18:13.354Z,99121.73
2018-10-17T09:20:41.942Z,99120.45
2018-10-17T09:23:10.082Z,99113.87
2018-10-17T09:25:38.468Z,99116.28
2018-10-17T09:28:06.663Z,99115.75
2018-10-17T09:30:35.009Z,99108.36
2018-10-17T09:33:03.527Z,99113.10
2018-10-17T09:35:31.917Z,99108.31
2018-10-17T09:38:00.300Z,99110.07
2018-10-17T09:40:28.641Z,99110.83
2018-10-17T09:42:57.016Z,99103.60
2018-10-17T09:45:25.351Z,99104.11
2018-10-17T09:47:53.716Z,99108.05
2018-10-17T09:50:22.072Z,99097.47
2018-10-17T09:52:50.506Z,99098.28
2018-10-17T09:55:18.875Z,99098.47
2018-10-17T09:57:47.245Z,99097.95
2018-10-17T10:00:20.932Z,99088.98
2018-10-17T10:02:50.810Z,99086.44
2018-10-17T10:05:19.169Z,99085.77
2018-10-17T10:07:47.555Z,99090.28
2018-10-17T10:10:15.998Z,99087.59
2018-10-17T10:12:44.307Z,99088.09
2018-10-17T10:15:12.721Z,99077.62
2018-10-17T10:17:41.151Z,99083.55
2018-10-17T10:20:09.474Z,99072.41
2018-10-17T10:22:37.810Z,99076.29
2018-10-17T10:25:06.419Z,99075.73
2018-10-17T10:27:34.768Z,99072.31
2018-10-17T10:30:03.404Z,99075.02
2018-10-17T10:32:31.880Z,99065.95
2018-10-17T10:35:00.255Z,99061.67
2018-10-17T10:37:28.597Z,99061.63
2018-10-17T10:39:57.011Z,99057.18
2018-10-17T10:42:25.328Z,99054.41
2018-10-17T10:44:53.707Z,99052.65
2018-10-17T10:47:22.050Z,99052.69
2018-10-17T10:49:50.412Z,99049.29
2018-10-17T10:52:18.738Z,99049.77
2018-10-17T10:54:47.201Z,99044.91
2018-10-17T10:57:15.676Z,99042.81
2018-10-17T10:59:44.368Z,99038.61
2018-10-17T11:02:12.682Z,99036.38
2018-10-17T11:04:41.081Z,99036.33
2018-10-17T11:07:09.443Z,99037.22
2018-10-17T11:09:37.804Z,99027.42
2018-10-17T11:12:06.571Z,99031.48
2018-10-17T11:14:35.000Z,99027.75
2018-10-17T11:17:03.404Z,99026.88
2018-10-17T11:19:31.764Z,99027.60
2018-10-17T11:22:00.155Z,99027.97
2018-10-17T11:24:28.494Z,99024.18
2018-10-17T11:26:56.855Z,99028.22
2018-10-17T11:29:25.272Z,99023.95
2018-10-17T11:31:53.690Z,99021.52
2018-10-17T11:34:21.967Z,99020.25
2018-10-17T11:36:50.408Z,99018.89
2018-10-17T11:39:18.808Z,99014.00
2018-10-17T11:41:47.147Z,99012.56
2018-10-17T11:44:15.528Z,99008.98
2018-10-17T11:46:43.858Z,99000.09
2018-10-17T11:49:12.219Z,99003.48
2018-10-17T11:51:40.610Z,99001.29
2018-10-17T11:54:08.971Z,99005.25
2018-10-17T11:56:37.314Z,99002.87
2018-10-17T11:59:05.901Z,99000.20
2018-10-17T12:01:34.263Z,98997.77
2018-10-17T12:04:02.890Z,98993.19
2018-10-17T12:06:31.107Z,99001.80
2018-10-17T12:08:59.444Z,98998.61
2018-10-17T12:11:27.877Z,99001.84
2018-10-17T12:13:56.199Z,98991.98
2018-10-17T12:16:24.547Z,98989.86
2018-10-17T12:18:53.047Z,98989.59
2018-10-17T12:21:21.447Z,98991.73
2018-10-17T12:23:49.747Z,98987.16
2018-10-17T12:26:18.268Z,98982.97
2018-10-17T12:57:53.871Z,98977.30
2018-10-17T13:00:22.391Z,98969.77
2018-10-17T13:02:50.683Z,98972.16
2018-10-17T13:05:19.001Z,98976.11
2018-10-17T13:07:47.338Z,98969.05
2018-10-17T13:10:15.627Z,98974.27
2018-10-17T13:12:43.877Z,98965.39
2018-10-17T13:15:14.215Z,98975.41
2018-10-17T13:17:43.584Z,98971.97
2018-10-17T13:20:12.049Z,98968.53
2018-10-17T13:22:40.647Z,98973.20
2018-10-17T13:25:09.020Z,98969.66
2018-10-17T13:27:37.353Z,98965.15
2018-10-17T13:30:06.411Z,98966.84
2018-10-17T13:32:34.729Z,98962.46
2018-10-17T13:35:03.408Z,98968.94
2018-10-17T13:37:31.823Z,98967.34
2018-10-17T13:40:00.130Z,98971.02
2018-10-17T13:42:28.497Z,98964.27
2018-10-17T13:44:56.815Z,98961.34
2018-10-17T13:47:25.226Z,98956.84
2018-10-17T13:49:53.932Z,98956.85
2018-10-17T13:52:22.312Z,98952.43
2018-10-17T13:54:50.689Z,98952.47
2018-10-17T13:57:18.952Z,98953.50
2018-10-17T13:59:47.348Z,98954.83
2018-10-17T14:02:15.738Z,98958.08
2018-10-17T14:04:44.050Z,98952.47
2018-10-17T14:07:12.627Z,98955.86
2018-10-17T14:09:44.140Z,98959.52
2018-10-17T14:12:12.686Z,98953.91
2018-10-17T14:14:42.084Z,98961.29
2018-10-17T14:17:10.783Z,98962.03
2018-10-17T14:19:39.328Z,98960.05
2018-10-17T14:22:08.615Z,98960.64
2018-10-17T14:24:37.416Z,98966.00
2018-10-17T14:27:06.554Z,98959.53
2018-10-17T14:29:37.984Z,98962.80
2018-10-17T14:32:06.961Z,98962.33
2018-10-17T14:34:35.666Z,98963.69
2018-10-17T14:37:04.128Z,98956.82
2018-10-17T14:39:32.527Z,98956.91
2018-10-17T14:42:01.020Z,98962.16
2018-10-17T14:44:29.384Z,98965.39
2018-10-17T14:46:57.884Z,98959.11
2018-10-17T14:49:26.178Z,98960.80
2018-10-17T14:51:54.969Z,98962.27
2018-10-17T14:54:24.241Z,98960.30
2018-10-17T14:57:03.635Z,98960.15
2018-10-17T14:59:32.284Z,98965.11
2018-10-17T15:02:00.871Z,98956.70
2018-10-17T15:04:30.579Z,98953.27
2018-10-17T15:06:59.054Z,98956.93
2018-10-17T15:09:27.915Z,98957.69
2018-10-17T15:11:56.698Z,98962.72
2018-10-17T15:14:24.791Z,98960.41
2018-10-17T15:16:53.457Z,98964.06
2018-10-17T15:19:21.866Z,98966.14
2018-10-17T15:21:50.195Z,98967.10
2018-10-17T15:24:18.978Z,98966.38
2018-10-17T15:26:47.285Z,98966.34
2018-10-17T15:29:22.023Z,98960.70
2018-10-17T15:31:50.543Z,98966.83
2018-10-17T15:34:18.812Z,98968.70
2018-10-17T15:36:47.246Z,98967.66
2018-10-17T15:39:16.710Z,98969.84
2018-10-17T15:41:45.419Z,98972.12
2018-10-17T15:44:13.888Z,98972.31
2018-10-17T15:46:42.266Z,98974.95
2018-10-17T15:49:10.757Z,98975.96
2018-10-17T15:51:39.691Z,98980.28
2018-10-17T15:54:08.079Z,98984.22
2018-10-17T15:56:36.849Z,98979.37
2018-10-17T15:59:05.624Z,98981.59
2018-10-17T16:01:34.288Z,98989.30
2018-10-17T16:04:03.487Z,98987.62
2018-10-17T16:06:32.148Z,98988.25
2018-10-17T16:09:00.857Z,98995.19
2018-10-17T16:11:29.420Z,98996.94
2018-10-17T16:13:58.188Z,98996.13
2018-10-17T16:16:26.654Z,98994.47
2018-10-17T16:18:55.010Z,98994.00
2018-10-17T16:21:23.311Z,98994.20
2018-10-17T16:23:51.852Z,99001.45
2018-10-17T16:26:20.273Z,98998.62
2018-10-17T16:28:48.664Z,99007.72
2018-10-17T16:31:17.248Z,99001.48
2018-10-17T16:33:45.564Z,99007.19
2018-10-17T16:36:13.945Z,99008.72
2018-10-17T16:38:42.241Z,99009.36
2018-10-17T16:41:10.563Z,99013.08
2018-10-17T16:43:38.948Z,99011.88
2018-10-17T16:46:07.793Z,99012.85
2018-10-17T16:48:36.243Z,99015.04
2018-10-17T16:51:04.611Z,99017.36
2018-10-17T16:53:32.969Z,99018.86
2018-10-17T16:56:01.305Z,99024.08
2018-10-17T16:58:29.698Z,99021.16
2018-10-17T17:00:58.063Z,99031.70
2018-10-17T17:03:26.419Z,99029.18
2018-10-17T17:05:54.811Z,99021.61
2018-10-17T17:08:23.276Z,99031.34
2018-10-17T17:10:51.622Z,99031.59
2018-10-17T17:13:19.941Z,99029.03
2018-10-17T17:15:48.288Z,99035.09
2018-10-17T17:18:16.777Z,99040.41
2018-10-17T17:20:45.013Z,99038.89
2018-10-17T17:23:13.364Z,99040.36
2018-10-17T17:25:42.144Z,99042.99
2018-10-17T17:28:10.515Z,99040.97
2018-10-17T17:30:38.995Z,99049.35
2018-10-17T17:33:07.381Z,99048.48
2018-10-17T17:35:35.727Z,99048.23
2018-10-17T17:38:04.351Z,99045.27
2018-10-17T17:40:32.741Z,99054.45
2018-10-17T17:43:02.568Z,99057.33
2018-10-17T17:48:04.142Z,99060.12
2018-10-17T17:50:33.223Z,99054.11
2018-10-17T17:53:01.584Z,99059.03
2018-10-17T17:55:32.716Z,99063.28
2018-10-17T17:58:04.775Z,99061.69
2018-10-17T18:00:35.372Z,99064.45
2018-10-17T18:03:06.600Z,99062.50
2018-10-17T18:05:38.663Z,99065.23
2018-10-17T18:08:08.307Z,99064.02
2018-10-17T18:10:38.653Z,99067.50
2018-10-17T18:13:08.564Z,99069.59
2018-10-17T18:15:39.059Z,99073.08
2018-10-17T18:18:08.386Z,99079.39
2018-10-17T18:20:36.999Z,99073.69
2018-10-17T18:23:07.356Z,99081.62
2018-10-17T18:25:35.787Z,99085.76
2018-10-17T18:28:05.436Z,99089.28
2018-10-17T18:30:34.772Z,99085.75
2018-10-17T18:33:03.589Z,99091.42
2018-10-17T18:35:33.570Z,99085.48
2018-10-17T18:38:02.326Z,99084.45
2018-10-17T18:40:30.768Z,99092.30
2018-10-17T18:43:00.223Z,99089.27
2018-10-17T18:45:28.561Z,99096.58
2018-10-17T18:47:57.346Z,99091.86
2018-10-17T18:50:26.899Z,99095.88
2018-10-17T18:52:56.383Z,99098.44
2018-10-17T18:55:26.021Z,99096.50
2018-10-17T18:57:55.081Z,99100.89
2018-10-17T19:00:24.352Z,99100.89
2018-10-17T19:02:52.734Z,99101.03
2018-10-17T19:05:21.298Z,99099.71
2018-10-17T19:07:49.843Z,99102.94
2018-10-17T19:10:19.089Z,99103.63
2018-10-17T19:12:47.643Z,99102.69
2018-10-17T19:15:16.083Z,99103.38
2018-10-17T19:17:44.488Z,99104.03
2018-10-17T19:20:13.083Z,99115.83
2018-10-17T19:22:43.095Z,99109.11
2018-10-17T19:25:11.502Z,99116.13
2018-10-17T19:27:39.827Z,99117.66
2018-10-17T19:30:09.599Z,99116.00
2018-10-17T19:32:38.084Z,99116.19
2018-10-17T19:35:06.715Z,99114.56
2018-10-17T19:37:35.507Z,99115.71
2018-10-17T19:40:03.952Z,99115.27
2018-10-17T19:42:32.281Z,99119.34
2018-10-17T19:45:04.305Z,99116.55
2018-10-17T19:47:32.652Z,99122.95
2018-10-17T19:50:00.993Z,99125.28
2018-10-17T19:52:29.492Z,99128.50
2018-10-17T19:54:58.023Z,99126.54
2018-10-17T19:57:32.646Z,99131.61
2018-10-17T20:04:25.811Z,99132.82
2018-10-17T20:06:54.164Z,99137.92
2018-10-17T20:09:22.529Z,99135.31
2018-10-17T20:11:50.932Z,99139.68
2018-10-17T20:14:19.299Z,99135.43
2018-10-17T20:16:47.636Z,99136.91
2018-10-17T20:19:16.054Z,99131.55
2018-10-17T20:21:44.392Z,99137.33
2018-10-17T20:24:12.771Z,99143.59
2018-10-17T20:26:41.162Z,99141.86
2018-10-17T20:29:09.518Z,99140.83
2018-10-17T20:31:37.956Z,99145.24
2018-10-17T20:34:06.312Z,99146.25
2018-10-17T20:36:34.824Z,99147.64
2018-10-17T20:39:03.198Z,99144.67
2018-10-17T20:41:31.529Z,99147.64
2018-10-17T20:43:59.909Z,99144.91
2018-10-17T20:46:28.404Z,99141.94
2018-10-17T20:48:56.716Z,99135.45
2018-10-17T20:51:25.044Z,99136.33
2018-10-17T20:53:53.457Z,99139.13
2018-10-17T20:56:21.911Z,99140.17
2018-10-17T20:58:50.141Z,99144.77
2018-10-17T21:01:18.568Z,99145.24
2018-10-17T21:03:46.935Z,99148.34
2018-10-17T21:06:15.291Z,99149.52
2018-10-17T21:08:43.660Z,99144.66
2018-10-17T21:11:12.057Z,99147.53
2018-10-17T21:13:40.392Z,99147.47
2018-10-17T21:16:08.711Z,99145.78
2018-10-17T21:18:37.027Z,99145.95
2018-10-17T21:21:05.752Z,99148.09
2018-10-17T21:23:34.052Z,99150.48
2018-10-17T21:26:02.484Z,99154.42
2018-10-17T21:28:30.838Z,99152.88
2018-10-17T21:30:59.224Z,99152.09
2018-10-17T21:33:27.529Z,99156.82
2018-10-17T21:35:55.919Z,99154.69
2018-10-17T21:38:24.328Z,99151.71
2018-10-17T21:40:52.697Z,99160.61
2018-10-17T21:43:21.072Z,99161.98
2018-10-17T21:45:49.392Z,99163.16
2018-10-17T21:48:17.726Z,99154.81
2018-10-17T21:50:46.096Z,99165.67
2018-10-17T21:53:14.447Z,99159.23
2018-10-17T21:55:42.828Z,99153.84
2018-10-17T21:58:11.146Z,99153.49
2018-10-17T22:00:39.729Z,99158.91
2018-10-17T22:03:08.026Z,99163.98
2018-10-17T22:05:36.391Z,99163.77
2018-10-17T22:08:05.166Z,99159.80
2018-10-17T22:10:33.417Z,99163.12
2018-10-17T22:13:02.203Z,99161.10
2018-10-17T22:15:30.575Z,99154.56
2018-10-17T22:17:58.874Z,99156.13
2018-10-17T22:20:27.262Z,99157.30
2018-10-17T22:22:55.637Z,99153.39
2018-10-17T22:25:23.947Z,99158.55
2018-10-17T22:27:52.239Z,99160.91
2018-10-17T22:30:20.593Z,99165.00
2018-10-17T22:32:48.926Z,99167.73
2018-10-17T22:35:17.324Z,99167.05
2018-10-17T22:37:45.746Z,99167.80
2018-10-17T22:40:14.121Z,99166.44
2018-10-17T22:42:42.484Z,99173.92
2018-10-17T22:45:10.812Z,99165.69
2018-10-17T22:47:39.160Z,99166.77
2018-10-17T22:50:08.075Z,99167.70
2018-10-17T22:52:36.521Z,99170.42
2018-10-17T22:55:04.893Z,99168.50
2018-10-17T22:57:33.258Z,99167.63
2018-10-17T23:00:01.589Z,99173.64
2018-10-17T23:02:30.010Z,99176.41
2018-10-17T23:04:58.524Z,99174.84
2018-10-17T23:07:26.859Z,99170.53
2018-10-17T23:09:55.235Z,99178.28
2018-10-17T23:12:23.561Z,99172.38
2018-10-17T23:14:51.967Z,99174.53
2018-10-17T23:17:20.312Z,99182.15
2018-10-17T23:19:48.619Z,99180.36
2018-10-17T23:22:16.954Z,99172.84
2018-10-17T23:24:45.280Z,99177.81
2018-10-17T23:27:13.608Z,99168.59
2018-10-17T23:29:41.917Z,99171.61
2018-10-17T23:32:10.380Z,99177.55
2018-10-17T23:34:38.695Z,99169.23
2018-10-17T23:37:07.096Z,99164.37
2018-10-17T23:39:35.531Z,99169.00
2018-10-17T23:42:03.869Z,99174.67
2018-10-17T23:44:32.184Z,99175.66
2018-10-17T23:47:00.640Z,99178.44
2018-10-17T23:49:29.003Z,99176.89
2018-10-17T23:51:57.401Z,99177.13
2018-10-17T23:54:25.790Z,99178.91
2018-10-17T23:56:54.194Z,99177.61
2018-10-17T23:59:22.492Z,99175.91
